Time;durP1;ratioP1;P1;durP2;ratioP2;P2;SDS_P1;SDS_P2;PMS_P1;PMS_P2;Temp;Humidity;BMP_temperature;BMP_pressure;BME280_temperature;BME280_humidity;BME280_pressure;Samples;Min_cycle;Max_cycle;Signal;HPM_P1;HPM_P2
2022/01/14 00:00:48;;;;;;;;;;;;;;;8.83;44.52;100461.28;4480845;32;34677;-83
2022/01/14 00:03:16;;;;;;;;;;;;;;;7.64;47.54;100462.16;4482207;32;33137;-83
2022/01/14 00:05:45;;;;;;;;;;;;;;;8.61;45.43;100456.94;4482370;32;34255;-83
2022/01/14 00:08:12;;;;;;;;;;;;;;;8.52;45.83;100462.59;4474378;32;34278;-84
2022/01/14 00:10:41;;;;;;;;;;;;;;;8.95;44.44;100464.34;4480339;32;33295;-86
2022/01/14 00:13:27;;;;;;;;;;;;;;;8.05;46.56;100458.84;4482080;32;34051;-87
2022/01/14 00:15:54;;;;;;;;;;;;;;;8.74;45.47;100459.19;4482048;32;33538;-86
2022/01/14 00:18:21;;;;;;;;;;;;;;;8.40;45.99;100454.31;4482239;32;33990;-86
2022/01/14 00:20:48;;;;;;;;;;;;;;;7.67;48.10;100454.56;4481923;32;34561;-86
2022/01/14 00:23:17;;;;;;;;;;;;;;;8.38;46.69;100461.16;4481803;32;33484;-85
2022/01/14 00:34:04;;;;;;;;;;;;;;;8.62;45.86;100449.22;4477816;32;33862;-84
2022/01/14 00:36:31;;;;;;;;;;;;;;;9.26;43.67;100445.72;4481452;32;34363;-84
2022/01/14 00:38:58;;;;;;;;;;;;;;;9.66;43.25;100442.94;4480384;32;34267;-83
2022/01/14 00:41:26;;;;;;;;;;;;;;;9.43;43.59;100431.75;4476214;32;34307;-85
2022/01/14 00:44:00;;;;;;;;;;;;;;;9.40;42.90;100438.50;4475330;32;34508;-83
2022/01/14 00:46:28;;;;;;;;;;;;;;;10.07;41.05;100430.56;4475550;32;34311;-83
2022/01/14 00:48:56;;;;;;;;;;;;;;;10.43;40.27;100427.53;4475929;32;33707;-83
2022/01/14 00:51:23;;;;;;;;;;;;;;;9.44;42.25;100424.84;4482092;32;35239;-86
2022/01/14 00:53:50;;;;;;;;;;;;;;;10.23;41.02;100426.81;4482170;32;34436;-85
2022/01/14 00:56:29;;;;;;;;;;;;;;;10.71;39.65;100421.53;4481313;32;34061;-84
2022/01/14 00:59:15;;;;;;;;;;;;;;;9.94;40.77;100428.41;4475958;32;34301;-84
2022/01/14 01:01:48;;;;;;;;;;;;;;;10.11;40.73;100419.47;4471907;32;34992;-83
2022/01/14 01:04:26;;;;;;;;;;;;;;;9.94;41.46;100423.22;4475108;32;33733;-84
2022/01/14 01:06:53;;;;;;;;;;;;;;;10.19;40.61;100418.06;4482655;32;34552;-86
2022/01/14 01:09:23;;;;;;;;;;;;;;;9.88;40.85;100412.63;4470360;32;32444;-82
2022/01/14 01:11:52;;;;;;;;;;;;;;;10.18;41.14;100418.88;4482576;32;35198;-82
2022/01/14 01:14:26;;;;;;;;;;;;;;;10.51;39.65;100428.66;4467659;32;33447;-84
2022/01/14 01:16:54;;;;;;;;;;;;;;;10.66;38.94;100423.09;4479672;31;34387;-85
2022/01/14 01:19:21;;;;;;;;;;;;;;;10.82;38.71;100419.28;4482109;32;33854;-83
2022/01/14 01:21:48;;;;;;;;;;;;;;;10.57;39.20;100418.50;4482182;32;34574;-84
2022/01/14 01:24:26;;;;;;;;;;;;;;;10.51;39.08;100415.69;4484440;32;32464;-84
2022/01/14 01:26:54;;;;;;;;;;;;;;;10.46;38.90;100420.72;4482663;32;35323;-84
2022/01/14 01:32:05;;;;;;;;;;;;;;;10.83;37.90;100415.84;4483102;32;34389;-86
2022/01/14 01:34:33;;;;;;;;;;;;;;;10.69;37.79;100405.91;4482714;31;33208;-84
2022/01/14 01:37:01;;;;;;;;;;;;;;;9.93;39.30;100405.91;4482302;32;33835;-84
2022/01/14 01:39:29;;;;;;;;;;;;;;;10.22;39.07;100405.19;4482205;32;33870;-86
2022/01/14 01:41:58;;;;;;;;;;;;;;;10.41;38.72;100398.06;4483154;32;33875;-84
2022/01/14 01:44:26;;;;;;;;;;;;;;;10.55;38.18;100390.75;4482028;32;33286;-85
2022/01/14 01:46:54;;;;;;;;;;;;;;;9.86;39.21;100390.97;4480277;32;34954;-86
2022/01/14 01:49:23;;;;;;;;;;;;;;;10.27;38.32;100394.16;4483616;32;35428;-85
2022/01/14 01:51:50;;;;;;;;;;;;;;;10.51;38.05;100392.34;4481155;32;34794;-87
2022/01/14 01:54:18;;;;;;;;;;;;;;;9.29;41.65;100391.50;4483785;32;32099;-87
2022/01/14 01:56:45;;;;;;;;;;;;;;;9.80;40.27;100394.22;4481558;32;34793;-86
2022/01/14 01:59:13;;;;;;;;;;;;;;;9.02;41.23;100384.47;4483835;32;34274;-87
2022/01/14 02:01:40;;;;;;;;;;;;;;;9.89;39.51;100378.16;4481897;32;34662;-87
2022/01/14 02:04:08;;;;;;;;;;;;;;;9.54;40.07;100374.28;4483520;32;34134;-84
2022/01/14 02:06:37;;;;;;;;;;;;;;;9.81;39.60;100374.38;4482846;32;33601;-86
2022/01/14 02:09:05;;;;;;;;;;;;;;;9.81;39.76;100366.59;4479186;32;35346;-85
2022/01/14 02:11:32;;;;;;;;;;;;;;;9.60;40.27;100359.84;4481281;32;34280;-87
2022/01/14 02:14:02;;;;;;;;;;;;;;;9.50;39.76;100352.56;4482912;32;34351;-87
2022/01/14 02:16:35;;;;;;;;;;;;;;;9.60;39.83;100354.69;4467481;32;33726;-87
2022/01/14 02:19:26;;;;;;;;;;;;;;;9.85;39.41;100356.44;4473705;32;34177;-84
2022/01/14 02:22:13;;;;;;;;;;;;;;;10.20;38.52;100351.56;4482688;32;35355;-87
2022/01/14 02:27:09;;;;;;;;;;;;;;;10.31;37.87;100336.41;4483163;32;34979;-87
2022/01/14 02:29:36;;;;;;;;;;;;;;;9.75;39.00;100334.50;4483440;32;32994;-87
2022/01/14 02:32:04;;;;;;;;;;;;;;;10.10;38.47;100336.53;4483103;32;34630;-87
2022/01/14 02:34:31;;;;;;;;;;;;;;;10.32;38.06;100338.16;4479698;32;34326;-86
2022/01/14 02:36:59;;;;;;;;;;;;;;;10.19;38.09;100329.03;4481212;32;34006;-87
2022/01/14 02:39:26;;;;;;;;;;;;;;;10.43;37.16;100327.28;4483068;32;35294;-87
2022/01/14 02:41:53;;;;;;;;;;;;;;;10.34;37.36;100329.59;4482693;32;35186;-87
2022/01/14 02:44:26;;;;;;;;;;;;;;;10.52;36.82;100326.69;4474620;32;34274;-87
2022/01/14 02:46:57;;;;;;;;;;;;;;;10.43;37.02;100321.22;4482898;32;34147;-87
2022/01/14 02:49:29;;;;;;;;;;;;;;;10.46;36.97;100326.53;4483089;32;34530;-86
2022/01/14 02:51:57;;;;;;;;;;;;;;;10.40;36.91;100319.41;4481057;32;33799;-87
2022/01/14 02:54:38;;;;;;;;;;;;;;;10.41;37.11;100317.69;4477910;32;33958;-87
2022/01/14 02:57:06;;;;;;;;;;;;;;;10.52;36.69;100311.13;4480416;32;34933;-85
2022/01/14 02:59:33;;;;;;;;;;;;;;;10.45;36.73;100304.00;4469663;32;34497;-84
2022/01/14 03:02:01;;;;;;;;;;;;;;;9.94;37.63;100306.66;4477943;32;33987;-85
2022/01/14 03:04:30;;;;;;;;;;;;;;;9.39;38.88;100304.72;4481931;32;33743;-84
2022/01/14 03:06:58;;;;;;;;;;;;;;;9.49;38.84;100302.53;4481685;32;34097;-85
2022/01/14 03:09:25;;;;;;;;;;;;;;;9.38;39.00;100290.91;4483097;32;34773;-85
2022/01/14 03:11:53;;;;;;;;;;;;;;;9.24;39.36;100285.25;4478559;32;34464;-85
2022/01/14 03:14:23;;;;;;;;;;;;;;;9.69;38.59;100291.97;4483073;32;34631;-84
2022/01/14 03:16:51;;;;;;;;;;;;;;;9.95;37.91;100292.84;4482732;32;34111;-84
2022/01/14 03:19:25;;;;;;;;;;;;;;;9.84;38.00;100281.25;4481789;32;34222;-85
2022/01/14 03:22:03;;;;;;;;;;;;;;;9.42;39.00;100272.06;4482538;32;34281;-85
2022/01/14 03:27:04;;;;;;;;;;;;;;;9.56;38.79;100275.16;4482884;32;35152;-84
2022/01/14 03:29:31;;;;;;;;;;;;;;;9.02;39.93;100270.66;4482848;32;35397;-85
2022/01/14 03:31:58;;;;;;;;;;;;;;;9.25;39.50;100274.06;4482189;32;35267;-85
2022/01/14 03:34:26;;;;;;;;;;;;;;;9.30;40.29;100276.81;4481216;32;34421;-85
2022/01/14 03:36:53;;;;;;;;;;;;;;;9.34;39.66;100270.03;4482891;32;34336;-85
2022/01/14 03:39:20;;;;;;;;;;;;;;;9.33;39.90;100261.41;4482945;32;34502;-84
2022/01/14 03:41:47;;;;;;;;;;;;;;;9.71;39.02;100267.91;4481032;32;34025;-85
2022/01/14 03:44:15;;;;;;;;;;;;;;;9.36;39.88;100263.22;4481601;32;35107;-85
2022/01/14 03:46:42;;;;;;;;;;;;;;;9.28;39.80;100270.72;4482683;32;34450;-85
2022/01/14 03:49:09;;;;;;;;;;;;;;;9.36;39.59;100261.53;4483155;32;34067;-84
2022/01/14 03:51:37;;;;;;;;;;;;;;;9.39;39.63;100252.97;4482611;32;35149;-84
2022/01/14 03:54:04;;;;;;;;;;;;;;;9.70;38.92;100257.50;4480555;32;34330;-83
2022/01/14 03:56:32;;;;;;;;;;;;;;;9.50;39.19;100241.28;4482457;32;33984;-86
2022/01/14 03:59:01;;;;;;;;;;;;;;;9.46;39.36;100239.41;4482213;32;34374;-86
2022/01/14 04:01:28;;;;;;;;;;;;;;;9.19;39.55;100242.78;4482736;32;33907;-87
2022/01/14 04:03:55;;;;;;;;;;;;;;;8.98;40.04;100236.87;4481872;32;33477;-85
2022/01/14 04:06:22;;;;;;;;;;;;;;;9.18;39.83;100241.03;4476054;32;34238;-87
2022/01/14 04:08:49;;;;;;;;;;;;;;;8.78;40.65;100225.78;4474466;32;34877;-86
2022/01/14 04:11:17;;;;;;;;;;;;;;;8.93;40.63;100240.97;4480812;32;35066;-85
2022/01/14 04:16:12;;;;;;;;;;;;;;;8.66;44.43;100236.56;4481298;32;34126;-85
2022/01/14 04:18:39;;;;;;;;;;;;;;;7.77;46.99;100239.91;4468813;32;34346;-85
2022/01/14 04:21:07;;;;;;;;;;;;;;;7.40;48.61;100237.50;4480942;32;34581;-85
2022/01/14 04:23:34;;;;;;;;;;;;;;;6.90;50.74;100228.44;4480198;32;33562;-86
2022/01/14 04:26:01;;;;;;;;;;;;;;;7.21;49.79;100222.94;4481078;32;34105;-86
2022/01/14 04:28:35;;;;;;;;;;;;;;;7.63;47.91;100212.66;4481469;32;33896;-86
2022/01/14 04:31:06;;;;;;;;;;;;;;;7.78;47.97;100213.28;4480449;32;34624;-87
2022/01/14 04:33:35;;;;;;;;;;;;;;;8.04;47.36;100210.03;4481149;32;33714;-86
2022/01/14 04:36:03;;;;;;;;;;;;;;;7.84;47.19;100204.88;4479007;32;33822;-86
2022/01/14 04:38:31;;;;;;;;;;;;;;;7.65;48.30;100219.66;4481211;32;34133;-86
2022/01/14 04:40:58;;;;;;;;;;;;;;;6.47;52.15;100213.59;4481017;32;34335;-86
2022/01/14 04:43:25;;;;;;;;;;;;;;;6.44;52.34;100204.06;4481000;32;33953;-86
2022/01/14 04:48:22;;;;;;;;;;;;;;;5.93;53.81;100221.41;4480780;32;34379;-85
2022/01/14 04:50:53;;;;;;;;;;;;;;;4.80;57.93;100216.53;4479772;32;34532;-87
2022/01/14 04:53:21;;;;;;;;;;;;;;;5.71;55.13;100213.41;4479578;32;33658;-86
2022/01/14 04:55:51;;;;;;;;;;;;;;;5.28;55.56;100208.72;4464315;32;33927;-86
2022/01/14 04:58:19;;;;;;;;;;;;;;;5.45;55.56;100199.25;4475696;32;34152;-85
2022/01/14 05:00:47;;;;;;;;;;;;;;;5.76;54.59;100194.84;4480666;32;35187;-86
2022/01/14 05:03:14;;;;;;;;;;;;;;;6.43;52.62;100178.22;4480539;32;33714;-85
2022/01/14 05:05:45;;;;;;;;;;;;;;;6.86;51.41;100181.03;4478210;32;79474;-86
2022/01/14 05:08:19;;;;;;;;;;;;;;;7.19;50.12;100181.56;4481820;32;34257;-87
2022/01/14 05:11:03;;;;;;;;;;;;;;;7.78;47.98;100187.47;4481929;32;34232;-86
2022/01/14 05:13:31;;;;;;;;;;;;;;;8.45;46.32;100184.06;4481188;32;33346;-86
2022/01/14 05:15:58;;;;;;;;;;;;;;;8.86;44.53;100182.09;4481273;32;33879;-87
2022/01/14 05:18:25;;;;;;;;;;;;;;;8.60;44.63;100176.88;4478656;32;35303;-87
2022/01/14 05:20:53;;;;;;;;;;;;;;;8.56;44.87;100174.09;4481626;32;34065;-86
2022/01/14 05:23:20;;;;;;;;;;;;;;;8.94;44.36;100173.81;4481600;32;34036;-87
2022/01/14 05:25:47;;;;;;;;;;;;;;;8.91;44.14;100178.00;4480668;32;35030;-85
2022/01/14 05:28:15;;;;;;;;;;;;;;;9.17;42.96;100166.84;4479470;32;34082;-86
2022/01/14 05:30:42;;;;;;;;;;;;;;;9.25;42.84;100170.56;4479749;32;34542;-86
2022/01/14 05:33:09;;;;;;;;;;;;;;;9.64;41.24;100164.94;4480105;31;33778;-85
2022/01/14 05:35:37;;;;;;;;;;;;;;;9.64;40.72;100171.84;4477422;32;34975;-85
2022/01/14 05:38:04;;;;;;;;;;;;;;;9.79;40.16;100174.06;4476494;32;35198;-86
2022/01/14 05:40:31;;;;;;;;;;;;;;;9.82;39.50;100169.84;4479375;32;35258;-88
2022/01/14 05:42:59;;;;;;;;;;;;;;;9.14;40.98;100171.91;4480229;32;33098;-86
2022/01/14 05:45:26;;;;;;;;;;;;;;;9.48;41.13;100168.75;4477800;32;34339;-88
2022/01/14 05:47:54;;;;;;;;;;;;;;;8.97;41.65;100173.00;4480153;32;34016;-89
2022/01/14 05:50:22;;;;;;;;;;;;;;;9.45;40.48;100167.78;4463734;32;34992;-88
2022/01/14 05:52:49;;;;;;;;;;;;;;;9.21;41.14;100167.84;4479942;32;33506;-88
2022/01/14 05:55:17;;;;;;;;;;;;;;;9.31;40.88;100174.19;4481429;32;35032;-86
2022/01/14 05:57:45;;;;;;;;;;;;;;;9.18;41.10;100176.37;4480884;32;34261;-87
2022/01/14 06:00:14;;;;;;;;;;;;;;;8.75;42.13;100174.84;4482989;32;34110;-86
2022/01/14 06:02:45;;;;;;;;;;;;;;;8.67;41.78;100175.38;4484352;32;33616;-84
2022/01/14 06:05:12;;;;;;;;;;;;;;;9.34;40.57;100170.00;4483580;32;34070;-86
2022/01/14 06:07:40;;;;;;;;;;;;;;;9.11;40.84;100165.75;4482410;32;34261;-87
2022/01/14 06:10:08;;;;;;;;;;;;;;;9.34;40.72;100169.13;4482245;32;34538;-88
2022/01/14 06:12:35;;;;;;;;;;;;;;;9.53;39.99;100163.72;4482553;32;33730;-87
2022/01/14 06:15:03;;;;;;;;;;;;;;;9.48;40.10;100167.88;4483826;32;34932;-87
2022/01/14 06:17:30;;;;;;;;;;;;;;;7.88;45.32;100165.44;4483594;32;35160;-87
2022/01/14 06:19:57;;;;;;;;;;;;;;;8.59;43.51;100169.06;4483364;32;34533;-85
2022/01/14 06:22:25;;;;;;;;;;;;;;;9.06;42.23;100159.53;4482341;32;33506;-87
2022/01/14 06:24:52;;;;;;;;;;;;;;;9.14;41.05;100158.97;4483871;32;35490;-87
2022/01/14 06:27:19;;;;;;;;;;;;;;;8.91;41.12;100152.13;4483455;32;33737;-87
2022/01/14 06:29:46;;;;;;;;;;;;;;;9.29;40.37;100144.81;4483327;32;34877;-87
2022/01/14 06:32:13;;;;;;;;;;;;;;;9.09;40.57;100147.59;4483642;32;33435;-86
2022/01/14 06:34:41;;;;;;;;;;;;;;;7.91;43.33;100144.94;4483392;32;34182;-87
2022/01/14 06:37:08;;;;;;;;;;;;;;;7.99;43.77;100159.00;4483597;32;34126;-86
2022/01/14 06:39:35;;;;;;;;;;;;;;;8.45;43.38;100158.22;4483194;32;34264;-86
2022/01/14 06:42:03;;;;;;;;;;;;;;;8.17;43.45;100143.34;4483388;32;34337;-84
2022/01/14 06:44:30;;;;;;;;;;;;;;;6.78;47.97;100152.34;4483592;32;33855;-87
2022/01/14 06:46:57;;;;;;;;;;;;;;;8.10;44.60;100142.22;4483929;32;34612;-88
2022/01/14 06:49:25;;;;;;;;;;;;;;;6.73;47.87;100140.94;4483525;32;33895;-88
2022/01/14 06:51:52;;;;;;;;;;;;;;;8.13;44.54;100136.31;4483711;32;33697;-88
2022/01/14 06:54:20;;;;;;;;;;;;;;;8.43;44.16;100142.66;4483640;32;34308;-88
2022/01/14 06:56:48;;;;;;;;;;;;;;;8.44;43.97;100136.66;4483192;32;34270;-88
2022/01/14 06:59:15;;;;;;;;;;;;;;;8.56;43.81;100144.00;4482674;32;34468;-88
2022/01/14 07:01:42;;;;;;;;;;;;;;;8.59;43.55;100138.91;4483569;32;34412;-88
2022/01/14 07:04:10;;;;;;;;;;;;;;;8.89;43.12;100138.25;4483454;32;34142;-88
2022/01/14 07:06:37;;;;;;;;;;;;;;;9.11;42.13;100134.72;4483286;32;34416;-87
2022/01/14 07:09:04;;;;;;;;;;;;;;;9.17;42.10;100129.75;4483560;32;35248;-87
2022/01/14 07:11:36;;;;;;;;;;;;;;;9.31;41.54;100132.78;4483047;32;33799;-88
2022/01/14 07:14:04;;;;;;;;;;;;;;;8.95;42.18;100130.72;4483483;32;34804;-88
2022/01/14 07:16:33;;;;;;;;;;;;;;;9.17;41.91;100130.62;4483519;32;35373;-88
2022/01/14 07:19:01;;;;;;;;;;;;;;;8.99;43.28;100125.69;4482244;32;35343;-87
2022/01/14 07:21:28;;;;;;;;;;;;;;;8.98;43.37;100123.06;4482171;32;33524;-89
2022/01/14 07:23:55;;;;;;;;;;;;;;;8.09;46.69;100119.81;4483164;32;34021;-88
2022/01/14 07:26:22;;;;;;;;;;;;;;;7.57;48.57;100116.06;4483177;32;34212;-88
2022/01/14 07:28:49;;;;;;;;;;;;;;;8.62;46.57;100120.94;4483498;32;33958;-88
2022/01/14 07:31:17;;;;;;;;;;;;;;;7.92;48.28;100110.56;4483696;32;33690;-88
2022/01/14 07:33:44;;;;;;;;;;;;;;;7.60;49.63;100117.03;4483193;32;34303;-88
2022/01/14 07:36:11;;;;;;;;;;;;;;;7.98;48.39;100105.63;4483393;32;35269;-88
2022/01/14 07:38:39;;;;;;;;;;;;;;;8.91;46.06;100105.59;4483187;32;34540;-87
2022/01/14 07:41:06;;;;;;;;;;;;;;;8.94;45.85;100110.84;4483166;32;33545;-88
2022/01/14 07:43:35;;;;;;;;;;;;;;;7.53;49.06;100108.16;4483362;32;35048;-87
2022/01/14 07:46:03;;;;;;;;;;;;;;;7.53;49.97;100100.41;4482871;32;34559;-88
2022/01/14 07:48:30;;;;;;;;;;;;;;;6.57;52.85;100112.75;4483147;32;34732;-88
2022/01/14 07:50:57;;;;;;;;;;;;;;;7.69;49.83;100102.81;4483227;32;33553;-89
2022/01/14 07:53:25;;;;;;;;;;;;;;;7.18;51.17;100117.94;4483131;32;34016;-86
2022/01/14 07:55:52;;;;;;;;;;;;;;;7.65;50.81;100126.72;4483158;32;34085;-88
2022/01/14 07:58:19;;;;;;;;;;;;;;;7.03;52.52;100132.75;4483209;32;35158;-87
2022/01/14 08:00:51;;;;;;;;;;;;;;;7.44;50.92;100125.88;4483016;32;33570;-87
2022/01/14 08:03:19;;;;;;;;;;;;;;;7.47;51.44;100128.56;4482910;32;34289;-89
2022/01/14 08:05:49;;;;;;;;;;;;;;;7.20;51.99;100121.47;4482382;32;34500;-87
2022/01/14 08:08:16;;;;;;;;;;;;;;;7.08;52.44;100120.94;4482975;32;34453;-88
2022/01/14 08:10:45;;;;;;;;;;;;;;;6.88;52.90;100126.97;4482474;32;33192;-87
2022/01/14 08:13:12;;;;;;;;;;;;;;;6.58;53.76;100129.97;4483142;32;33685;-84
2022/01/14 08:15:39;;;;;;;;;;;;;;;6.99;52.33;100121.44;4483287;32;34008;-88
2022/01/14 08:18:07;;;;;;;;;;;;;;;7.63;50.94;100123.19;4482927;32;35394;-88
2022/01/14 08:20:34;;;;;;;;;;;;;;;6.68;53.50;100120.94;4482965;32;33551;-87
2022/01/14 08:23:01;;;;;;;;;;;;;;;6.48;53.88;100126.13;4482728;32;34113;-88
2022/01/14 08:25:34;;;;;;;;;;;;;;;6.22;55.03;100117.22;4482889;32;34323;-88
2022/01/14 08:28:02;;;;;;;;;;;;;;;6.56;53.90;100117.03;4482921;32;34448;-88
2022/01/14 08:30:29;;;;;;;;;;;;;;;6.23;54.92;100112.94;4482841;32;34363;-88
2022/01/14 08:32:56;;;;;;;;;;;;;;;7.06;52.99;100117.44;4482733;32;34096;-88
2022/01/14 08:35:23;;;;;;;;;;;;;;;6.86;53.48;100116.59;4482803;32;34429;-88
2022/01/14 08:37:50;;;;;;;;;;;;;;;6.72;53.62;100107.38;4482543;32;34427;-87
2022/01/14 08:40:18;;;;;;;;;;;;;;;6.99;52.88;100111.13;4482656;32;33353;-87
2022/01/14 08:42:51;;;;;;;;;;;;;;;6.31;54.99;100117.63;4481389;32;34374;-87
2022/01/14 08:45:21;;;;;;;;;;;;;;;6.27;55.23;100115.72;4482464;32;34616;-88
2022/01/14 08:47:54;;;;;;;;;;;;;;;7.25;52.38;100112.22;4482534;32;34566;-86
2022/01/14 08:50:22;;;;;;;;;;;;;;;6.14;54.99;100103.12;4482733;32;33320;-86
2022/01/14 08:52:50;;;;;;;;;;;;;;;6.32;54.95;100103.91;4482357;32;34807;-87
2022/01/14 08:55:18;;;;;;;;;;;;;;;6.63;53.96;100094.09;4481808;32;35081;-88
2022/01/14 08:57:46;;;;;;;;;;;;;;;6.70;54.28;100090.97;4481074;32;34530;-89
2022/01/14 09:00:15;;;;;;;;;;;;;;;7.35;52.23;100084.19;4482449;32;33735;-89
2022/01/14 09:02:47;;;;;;;;;;;;;;;6.79;53.89;100097.41;4478451;32;34780;-87
2022/01/14 09:05:14;;;;;;;;;;;;;;;6.75;54.12;100085.19;4482075;32;34813;-85
2022/01/14 09:07:41;;;;;;;;;;;;;;;7.16;52.97;100088.63;4482316;32;34007;-88
2022/01/14 09:10:09;;;;;;;;;;;;;;;7.19;53.10;100099.06;4468456;32;33687;-84
2022/01/14 09:12:36;;;;;;;;;;;;;;;7.31;52.76;100094.41;4466533;32;34523;-85
2022/01/14 09:15:03;;;;;;;;;;;;;;;7.13;53.27;100097.94;4466590;32;35388;-86
2022/01/14 09:17:31;;;;;;;;;;;;;;;8.02;51.05;100086.84;4466350;32;35644;-88
2022/01/14 09:19:58;;;;;;;;;;;;;;;7.78;51.90;100082.50;4475879;32;34300;-88
2022/01/14 09:22:28;;;;;;;;;;;;;;;8.21;50.87;100076.34;4482930;32;33849;-88
2022/01/14 09:24:57;;;;;;;;;;;;;;;7.43;52.68;100062.19;4484271;32;35295;-85
2022/01/14 09:27:25;;;;;;;;;;;;;;;7.74;52.14;100065.13;4484268;32;34505;-88
2022/01/14 09:29:54;;;;;;;;;;;;;;;7.44;52.80;100054.50;4483762;32;34520;-88
2022/01/14 09:32:21;;;;;;;;;;;;;;;7.96;51.03;100055.62;4483257;32;34870;-87
2022/01/14 09:34:48;;;;;;;;;;;;;;;7.60;52.14;100039.63;4484126;31;33536;-85
2022/01/14 09:37:15;;;;;;;;;;;;;;;7.53;52.04;100036.78;4483532;32;35265;-85
2022/01/14 09:39:43;;;;;;;;;;;;;;;8.04;50.55;100046.47;4484619;32;34606;-89
2022/01/14 09:42:11;;;;;;;;;;;;;;;7.30;52.14;100041.03;4483775;32;35121;-86
2022/01/14 09:44:38;;;;;;;;;;;;;;;7.50;52.01;100046.09;4484658;32;33962;-86
2022/01/14 09:47:06;;;;;;;;;;;;;;;7.86;50.86;100033.75;4483031;32;34401;-88
2022/01/14 09:49:33;;;;;;;;;;;;;;;8.24;49.51;100027.37;4483963;32;33917;-85
2022/01/14 09:52:01;;;;;;;;;;;;;;;8.90;48.13;100031.41;4483169;32;34116;-85
2022/01/14 09:54:28;;;;;;;;;;;;;;;7.47;51.34;100039.16;4482217;32;34930;-87
2022/01/14 09:56:55;;;;;;;;;;;;;;;7.73;50.52;100032.41;4483181;32;33995;-88
2022/01/14 09:59:23;;;;;;;;;;;;;;;7.76;50.46;100010.97;4483621;32;33042;-90
2022/01/14 10:01:50;;;;;;;;;;;;;;;7.57;50.90;100009.41;4482154;32;34979;-85
2022/01/14 10:04:21;;;;;;;;;;;;;;;8.05;49.72;100004.31;4482159;32;34309;-87
2022/01/14 10:06:51;;;;;;;;;;;;;;;7.74;50.33;100013.50;4483847;32;34515;-87
2022/01/14 10:09:21;;;;;;;;;;;;;;;7.56;50.65;100010.22;4483548;32;34354;-87
2022/01/14 10:12:04;;;;;;;;;;;;;;;7.57;51.03;99994.78;4483440;32;34835;-87
2022/01/14 10:14:32;;;;;;;;;;;;;;;7.95;49.94;100002.22;4483929;32;32964;-87
2022/01/14 10:17:00;;;;;;;;;;;;;;;8.64;48.31;99984.03;4481772;32;35073;-84
2022/01/14 10:19:33;;;;;;;;;;;;;;;8.01;49.47;99980.06;4482553;32;33801;-89
2022/01/14 10:22:02;;;;;;;;;;;;;;;7.65;49.76;99982.22;4483604;32;35688;-86
2022/01/14 10:24:30;;;;;;;;;;;;;;;8.49;48.20;99974.91;4482525;32;33611;-83
2022/01/14 10:26:57;;;;;;;;;;;;;;;8.08;48.90;99973.44;4484146;32;34110;-86
2022/01/14 10:29:29;;;;;;;;;;;;;;;8.23;48.65;99975.69;4484127;32;34507;-89
2022/01/14 10:31:57;;;;;;;;;;;;;;;8.19;48.87;99977.28;4471600;32;34934;-90
2022/01/14 10:34:24;;;;;;;;;;;;;;;8.23;48.59;99975.69;4468056;32;34528;-88
2022/01/14 10:37:07;;;;;;;;;;;;;;;8.55;47.87;99979.41;4468097;32;34277;-89
2022/01/14 10:39:34;;;;;;;;;;;;;;;8.55;47.71;99961.31;4468451;32;33514;-90
2022/01/14 10:42:04;;;;;;;;;;;;;;;7.64;49.83;99964.94;4466611;32;34060;-87
2022/01/14 10:44:52;;;;;;;;;;;;;;;7.96;49.37;99966.12;4467097;32;33849;-89
2022/01/14 10:47:21;;;;;;;;;;;;;;;7.95;49.47;99966.06;4466480;32;34343;-87
2022/01/14 10:49:50;;;;;;;;;;;;;;;8.49;47.92;99946.47;4466753;32;33522;-88
2022/01/14 10:52:18;;;;;;;;;;;;;;;8.33;48.70;99956.19;4468837;32;35015;-86
2022/01/14 10:54:49;;;;;;;;;;;;;;;8.39;48.22;99934.06;4473755;32;35148;-87
2022/01/14 10:57:16;;;;;;;;;;;;;;;8.32;48.20;99950.16;4474614;32;34424;-86
2022/01/14 10:59:44;;;;;;;;;;;;;;;8.02;48.99;99944.81;4483179;32;34129;-89
2022/01/14 11:02:30;;;;;;;;;;;;;;;8.11;48.85;99921.03;4482213;32;34365;-90
2022/01/14 11:05:05;;;;;;;;;;;;;;;8.35;48.15;99932.19;4483842;32;34298;-87
2022/01/14 11:07:32;;;;;;;;;;;;;;;7.62;49.88;99934.75;4469425;32;36276;-85
2022/01/14 11:10:00;;;;;;;;;;;;;;;8.42;48.27;99935.91;4467940;32;32883;-85
2022/01/14 11:12:29;;;;;;;;;;;;;;;8.39;48.22;99943.53;4466515;32;34239;-86
2022/01/14 11:14:57;;;;;;;;;;;;;;;7.65;49.46;99920.28;4481255;32;34095;-85
2022/01/14 11:17:24;;;;;;;;;;;;;;;7.98;49.27;99923.16;4483349;32;34331;-89
2022/01/14 11:20:12;;;;;;;;;;;;;;;8.04;49.19;99910.47;4477379;32;33129;-87
2022/01/14 11:25:26;;;;;;;;;;;;;;;8.24;48.38;99903.41;4467566;32;34432;-86
2022/01/14 11:27:57;;;;;;;;;;;;;;;8.58;47.82;99932.97;4466665;32;34084;-88
2022/01/14 11:30:30;;;;;;;;;;;;;;;8.31;48.06;99911.38;4471102;32;34472;-89
2022/01/14 11:32:59;;;;;;;;;;;;;;;7.73;49.09;99892.16;4481727;31;34377;-90
2022/01/14 11:35:26;;;;;;;;;;;;;;;7.69;49.51;99910.91;4482178;32;35369;-86
2022/01/14 11:37:53;;;;;;;;;;;;;;;7.87;49.08;99906.41;4483022;32;34892;-87
2022/01/14 11:40:20;;;;;;;;;;;;;;;7.77;49.39;99894.91;4481981;32;33739;-90
2022/01/14 11:42:58;;;;;;;;;;;;;;;7.44;50.44;99896.25;4481887;32;33817;-86
2022/01/14 11:45:43;;;;;;;;;;;;;;;7.67;49.93;99903.13;4482117;32;34274;-87
2022/01/14 11:48:31;;;;;;;;;;;;;;;8.23;48.76;99883.56;4483147;32;35198;-86
2022/01/14 11:51:03;;;;;;;;;;;;;;;8.46;48.23;99886.94;4483224;32;33659;-86
2022/01/14 11:53:32;;;;;;;;;;;;;;;7.73;50.09;99887.00;4483000;32;34830;-89
2022/01/14 11:55:59;;;;;;;;;;;;;;;8.65;47.98;99878.06;4481117;32;35350;-86
2022/01/14 11:58:26;;;;;;;;;;;;;;;8.40;48.51;99872.94;4482849;32;34269;-86
2022/01/14 12:00:53;;;;;;;;;;;;;;;8.30;48.90;99869.16;4476634;32;33428;-86
2022/01/14 12:03:28;;;;;;;;;;;;;;;8.67;47.82;99878.97;4481726;32;34799;-87
2022/01/14 12:05:57;;;;;;;;;;;;;;;8.10;49.34;99883.97;4482079;32;35275;-88
2022/01/14 12:08:31;;;;;;;;;;;;;;;7.66;50.73;99887.59;4482468;32;34104;-89
2022/01/14 12:11:05;;;;;;;;;;;;;;;8.13;49.40;99853.09;4482672;32;33477;-89
2022/01/14 12:16:06;;;;;;;;;;;;;;;8.46;48.92;99857.66;4482692;32;34360;-88
2022/01/14 12:18:53;;;;;;;;;;;;;;;8.48;48.88;99835.28;4481235;32;34235;-88
2022/01/14 12:21:32;;;;;;;;;;;;;;;8.38;49.10;99833.28;4478943;32;34548;-86
2022/01/14 12:24:01;;;;;;;;;;;;;;;9.63;46.45;99831.81;4483153;32;34007;-87
2022/01/14 12:26:28;;;;;;;;;;;;;;;9.33;47.02;99836.16;4480305;32;33879;-91
2022/01/14 12:29:08;;;;;;;;;;;;;;;8.59;48.25;99833.06;4482796;32;34668;-89
2022/01/14 12:31:54;;;;;;;;;;;;;;;8.57;48.78;99835.59;4481978;32;33603;-89
2022/01/14 12:34:21;;;;;;;;;;;;;;;9.07;47.17;99838.84;4477981;32;34951;-89
2022/01/14 12:36:49;;;;;;;;;;;;;;;8.98;47.76;99833.41;4482233;32;34416;-88
2022/01/14 12:39:17;;;;;;;;;;;;;;;8.70;48.48;99837.72;4482735;32;34543;-87
2022/01/14 12:41:44;;;;;;;;;;;;;;;9.49;46.33;99834.00;4480271;32;34352;-80
2022/01/14 12:44:13;;;;;;;;;;;;;;;8.83;47.45;99838.12;4466916;32;34507;-87
2022/01/14 12:46:51;;;;;;;;;;;;;;;8.78;48.08;99841.41;4480392;32;35288;-89
2022/01/14 12:49:22;;;;;;;;;;;;;;;8.38;48.71;99838.44;4482368;32;35126;-86
2022/01/14 12:52:00;;;;;;;;;;;;;;;8.84;47.27;99837.28;4476038;32;33642;-86
2022/01/14 12:54:34;;;;;;;;;;;;;;;8.75;47.59;99843.94;4480077;32;34811;-86
2022/01/14 12:57:02;;;;;;;;;;;;;;;9.08;46.48;99848.34;4481228;32;34323;-89
2022/01/14 12:59:38;;;;;;;;;;;;;;;9.52;45.49;99841.00;4483905;32;34027;-89
2022/01/14 13:02:05;;;;;;;;;;;;;;;9.14;46.29;99814.91;4483836;32;33892;-90
2022/01/14 13:04:33;;;;;;;;;;;;;;;8.41;48.26;99829.09;4483555;32;34221;-88
2022/01/14 13:07:03;;;;;;;;;;;;;;;8.86;47.41;99843.38;4483556;32;32813;-85
2022/01/14 13:09:31;;;;;;;;;;;;;;;8.91;46.86;99823.72;4483766;32;34056;-86
2022/01/14 13:12:17;;;;;;;;;;;;;;;8.72;47.48;99832.63;4483574;32;33652;-86
2022/01/14 13:14:48;;;;;;;;;;;;;;;8.46;47.79;99836.97;4481709;32;34517;-89
2022/01/14 13:17:26;;;;;;;;;;;;;;;9.27;46.32;99829.06;4483251;32;34408;-90
2022/01/14 13:19:58;;;;;;;;;;;;;;;9.77;44.71;99833.87;4481652;32;34341;-89
2022/01/14 13:22:28;;;;;;;;;;;;;;;8.82;46.94;99828.59;4482714;32;33022;-86
2022/01/14 13:24:56;;;;;;;;;;;;;;;9.05;46.91;99837.91;4483737;32;34266;-89